Time;durP1;ratioP1;P1;durP2;ratioP2;P2;SDS_P1;SDS_P2;PMS_P1;PMS_P2;Temp;Humidity;BMP_temperature;BMP_pressure;BME280_temperature;BME280_humidity;BME280_pressure;Samples;Min_cycle;Max_cycle;Signal;HPM_P1;HPM_P2
2023/03/31 00:02:20;;;;;;;11.82;3.80;;;9.90;99.90;;;;;;5029102;28;20087;-59
2023/03/31 00:04:51;;;;;;;12.40;3.55;;;9.90;99.90;;;;;;5022220;28;20084;-58
2023/03/31 00:07:23;;;;;;;12.60;3.80;;;9.90;99.90;;;;;;5035712;28;20052;-61
2023/03/31 00:09:49;;;;;;;12.48;4.10;;;9.90;99.90;;;;;;5029869;28;20171;-60
2023/03/31 00:12:15;;;;;;;7.22;3.10;;;9.90;99.90;;;;;;5034515;28;20036;-60
2023/03/31 00:14:42;;;;;;;10.13;4.15;;;9.90;99.90;;;;;;5070078;22;20064;-50
2023/03/31 00:17:09;;;;;;;10.95;3.38;;;9.90;99.90;;;;;;5059258;28;20210;-51
2023/03/31 00:19:35;;;;;;;10.82;3.53;;;9.90;99.90;;;;;;5042716;28;20032;-54
2023/03/31 00:22:01;;;;;;;15.95;3.88;;;9.90;99.90;;;;;;5063043;28;20032;-50
2023/03/31 00:24:31;;;;;;;15.27;4.63;;;9.80;99.90;;;;;;5046842;28;20573;-53
2023/03/31 00:27:01;;;;;;;13.25;5.13;;;9.90;99.90;;;;;;5047311;28;20428;-50
2023/03/31 00:29:27;;;;;;;11.98;4.35;;;9.90;99.90;;;;;;5046556;28;20051;-50
2023/03/31 00:31:54;;;;;;;15.23;3.83;;;9.90;99.90;;;;;;5051262;28;20176;-51
2023/03/31 00:34:20;;;;;;;11.07;4.28;;;9.90;99.90;;;;;;5050778;28;20021;-52
2023/03/31 00:36:46;;;;;;;17.98;3.90;;;9.80;99.90;;;;;;5050784;28;20045;-49
2023/03/31 00:39:14;;;;;;;14.93;4.43;;;9.90;99.90;;;;;;5060484;28;20066;-52
2023/03/31 00:41:40;;;;;;;16.45;4.43;;;9.90;99.90;;;;;;5057632;28;20120;-50
2023/03/31 00:44:17;;;;;;;19.13;4.45;;;9.80;99.90;;;;;;5053567;28;20423;-52
2023/03/31 00:46:52;;;;;;;15.32;5.40;;;9.80;99.90;;;;;;5056129;28;20037;-50
2023/03/31 00:49:40;;;;;;;19.17;4.30;;;9.80;99.90;;;;;;5063629;28;20094;-51
2023/03/31 00:52:20;;;;;;;19.67;5.53;;;9.80;99.90;;;;;;5049380;28;20020;-51
2023/03/31 00:54:49;;;;;;;9.18;3.15;;;9.80;99.90;;;;;;5050558;28;20578;-50
2023/03/31 00:57:15;;;;;;;20.35;5.22;;;9.80;99.90;;;;;;5056826;28;20315;-52
2023/03/31 00:59:45;;;;;;;10.27;3.38;;;9.80;99.90;;;;;;5055812;28;20040;-50
2023/03/31 01:02:13;;;;;;;14.52;4.13;;;9.80;99.90;;;;;;5053713;28;20283;-50
2023/03/31 01:04:49;;;;;;;16.17;4.57;;;9.80;99.90;;;;;;5053874;28;20514;-52
2023/03/31 01:07:27;;;;;;;19.48;4.13;;;9.80;99.90;;;;;;5052271;28;20027;-52
2023/03/31 01:09:58;;;;;;;19.77;4.40;;;9.80;99.90;;;;;;5059819;28;20021;-51
2023/03/31 01:12:25;;;;;;;12.98;3.90;;;9.80;99.90;;;;;;5055674;28;20071;-53
2023/03/31 01:14:52;;;;;;;16.75;3.67;;;9.80;99.90;;;;;;5051872;28;20070;-52
2023/03/31 01:17:20;;;;;;;11.82;4.28;;;9.80;99.90;;;;;;5053357;28;20033;-50
2023/03/31 01:20:13;;;;;;;14.27;3.45;;;9.80;99.90;;;;;;5043555;28;20397;-52
2023/03/31 01:22:58;;;;;;;12.30;3.78;;;9.80;99.90;;;;;;5057452;28;20033;-54
2023/03/31 01:25:42;;;;;;;13.90;4.00;;;9.80;99.90;;;;;;5051481;28;20028;-52
2023/03/31 01:28:36;;;;;;;13.48;3.95;;;9.80;99.90;;;;;;5043445;28;20047;-50
2023/03/31 01:31:30;;;;;;;14.60;3.72;;;9.80;99.90;;;;;;5058619;28;20553;-53
2023/03/31 01:34:05;;;;;;;15.50;2.85;;;9.80;99.90;;;;;;5044753;28;20463;-50
2023/03/31 01:36:52;;;;;;;11.90;3.85;;;9.80;99.90;;;;;;5047878;28;20040;-51
2023/03/31 01:39:42;;;;;;;16.50;3.60;;;9.70;99.90;;;;;;5050039;28;20043;-53
2023/03/31 01:42:21;;;;;;;13.20;3.42;;;9.70;99.90;;;;;;5043508;28;20090;-51
2023/03/31 01:45:24;;;;;;;13.30;2.92;;;9.70;99.90;;;;;;5054322;28;20021;-52
2023/03/31 01:48:11;;;;;;;8.35;2.83;;;9.70;99.90;;;;;;5049969;28;20087;-52
2023/03/31 01:50:55;;;;;;;9.10;3.40;;;9.70;99.90;;;;;;5057783;28;20086;-53
2023/03/31 01:53:49;;;;;;;19.90;3.53;;;9.60;99.90;;;;;;5052266;28;20032;-54
2023/03/31 01:56:36;;;;;;;11.90;2.90;;;9.70;99.90;;;;;;5046708;28;20025;-51
2023/03/31 01:59:01;;;;;;;17.05;3.50;;;9.60;99.90;;;;;;5061770;28;20495;-54
2023/03/31 02:01:36;;;;;;;15.05;3.15;;;9.60;99.90;;;;;;5059011;28;20041;-50
2023/03/31 02:04:08;;;;;;;16.67;3.67;;;9.70;99.90;;;;;;5055712;28;20028;-51
2023/03/31 02:06:39;;;;;;;15.02;4.00;;;9.70;99.90;;;;;;5041422;28;20510;-51
2023/03/31 02:09:14;;;;;;;12.35;3.17;;;9.70;99.90;;;;;;5059280;28;20021;-52
2023/03/31 02:11:42;;;;;;;13.70;3.00;;;9.70;99.90;;;;;;5047730;28;20025;-53
2023/03/31 02:14:11;;;;;;;18.92;3.60;;;9.70;99.90;;;;;;5044191;28;20063;-51
2023/03/31 02:16:40;;;;;;;14.60;3.45;;;9.70;99.90;;;;;;5054486;28;20430;-50
2023/03/31 02:19:09;;;;;;;11.77;3.63;;;9.70;99.90;;;;;;5060615;28;20060;-49
2023/03/31 02:21:38;;;;;;;8.48;3.38;;;9.70;99.90;;;;;;5051303;28;20025;-50
2023/03/31 02:24:09;;;;;;;15.15;3.28;;;9.70;99.90;;;;;;5063504;28;20024;-50
2023/03/31 02:26:40;;;;;;;12.15;3.22;;;9.70;99.90;;;;;;5055590;28;20039;-51
2023/03/31 02:29:06;;;;;;;14.30;3.20;;;9.70;99.90;;;;;;5049956;28;20021;-52
2023/03/31 02:31:55;;;;;;;9.57;2.55;;;9.70;99.90;;;;;;5056870;28;20045;-51
2023/03/31 02:34:20;;;;;;;11.65;2.72;;;9.60;99.90;;;;;;5046912;28;20029;-50
2023/03/31 02:36:47;;;;;;;10.45;3.60;;;9.60;99.90;;;;;;5055928;28;20364;-50
2023/03/31 02:39:17;;;;;;;15.68;3.17;;;9.60;99.90;;;;;;5057014;28;20202;-50
2023/03/31 02:41:43;;;;;;;11.90;3.78;;;9.60;99.90;;;;;;5057665;28;20028;-50
2023/03/31 02:44:10;;;;;;;9.30;3.03;;;9.60;99.90;;;;;;5059365;28;20062;-50
2023/03/31 02:46:36;;;;;;;5.95;2.75;;;9.60;99.90;;;;;;5056328;28;20036;-53
2023/03/31 02:49:06;;;;;;;12.25;2.25;;;9.60;99.90;;;;;;5057655;28;20020;-51
2023/03/31 02:51:51;;;;;;;9.35;2.83;;;9.60;99.90;;;;;;5058166;28;20056;-51
2023/03/31 02:54:38;;;;;;;13.17;3.13;;;9.60;99.90;;;;;;5049186;28;20100;-52
2023/03/31 02:57:39;;;;;;;8.13;2.47;;;9.60;99.90;;;;;;5050890;28;20025;-54
2023/03/31 03:00:24;;;;;;;8.27;2.78;;;9.50;99.90;;;;;;5053864;28;20020;-54
2023/03/31 03:03:06;;;;;;;14.65;3.45;;;9.50;99.90;;;;;;5055871;28;20056;-50
2023/03/31 03:05:57;;;;;;;13.20;3.95;;;9.60;99.90;;;;;;5056812;28;20052;-50
2023/03/31 03:09:00;;;;;;;14.70;3.50;;;9.60;99.90;;;;;;5044590;28;20016;-53
2023/03/31 03:11:44;;;;;;;10.23;3.30;;;9.50;99.90;;;;;;5052220;28;20078;-53
2023/03/31 03:14:20;;;;;;;8.70;3.40;;;9.60;99.90;;;;;;5045125;28;20036;-52
2023/03/31 03:16:58;;;;;;;9.85;3.55;;;9.60;99.90;;;;;;5058074;28;20076;-52
2023/03/31 03:19:23;;;;;;;10.25;3.33;;;9.50;99.90;;;;;;5049598;28;20039;-52
2023/03/31 03:21:49;;;;;;;9.07;3.08;;;9.50;99.90;;;;;;5054310;28;20037;-53
2023/03/31 03:24:16;;;;;;;12.55;2.85;;;9.50;99.90;;;;;;5054248;28;20036;-52
2023/03/31 03:26:43;;;;;;;13.30;4.00;;;9.50;99.90;;;;;;5054410;28;20525;-53
2023/03/31 03:29:12;;;;;;;8.68;3.55;;;9.50;99.90;;;;;;5054111;28;20025;-54
2023/03/31 03:31:37;;;;;;;10.02;3.80;;;9.50;99.90;;;;;;5050610;28;20037;-54
2023/03/31 03:34:03;;;;;;;10.63;3.30;;;9.50;99.90;;;;;;5060000;28;20277;-49
2023/03/31 03:36:29;;;;;;;14.32;3.55;;;9.40;99.90;;;;;;5049316;28;20021;-53
2023/03/31 03:38:54;;;;;;;8.88;3.28;;;9.40;99.90;;;;;;5055131;28;20087;-50
2023/03/31 03:41:20;;;;;;;9.05;3.72;;;9.50;99.90;;;;;;5053718;28;20024;-52
2023/03/31 03:43:46;;;;;;;10.15;3.45;;;9.40;99.90;;;;;;5054057;28;20029;-53
2023/03/31 03:46:11;;;;;;;9.30;3.47;;;9.40;99.90;;;;;;5058519;28;20040;-51
2023/03/31 03:48:37;;;;;;;13.35;3.53;;;9.40;99.90;;;;;;5053053;28;20067;-49
2023/03/31 03:51:03;;;;;;;9.85;3.92;;;9.40;99.90;;;;;;5059988;28;20140;-50
2023/03/31 03:53:28;;;;;;;8.40;3.80;;;9.40;99.90;;;;;;5054257;28;20399;-51
2023/03/31 03:55:54;;;;;;;12.65;4.20;;;9.40;99.90;;;;;;5056028;28;20017;-51
2023/03/31 03:58:20;;;;;;;9.95;4.30;;;9.40;99.90;;;;;;5056126;28;20483;-49
2023/03/31 04:00:46;;;;;;;12.25;4.55;;;9.40;99.90;;;;;;5061530;28;20522;-50
2023/03/31 04:03:12;;;;;;;13.30;4.95;;;9.40;99.90;;;;;;5052987;28;20052;-51
2023/03/31 04:05:37;;;;;;;10.10;4.43;;;9.40;99.90;;;;;;5054257;28;20087;-51
2023/03/31 04:08:04;;;;;;;13.35;4.03;;;9.40;99.90;;;;;;5058031;28;20107;-51
2023/03/31 04:10:31;;;;;;;11.35;4.35;;;9.40;99.90;;;;;;5058710;28;20025;-50
2023/03/31 04:12:56;;;;;;;11.60;4.35;;;9.40;99.90;;;;;;5056031;28;20036;-52
2023/03/31 04:15:22;;;;;;;13.15;4.88;;;9.40;99.90;;;;;;5057374;28;20096;-51
2023/03/31 04:17:49;;;;;;;13.52;5.75;;;9.40;99.90;;;;;;5046762;28;20479;-52
2023/03/31 04:20:16;;;;;;;13.70;4.50;;;9.40;99.90;;;;;;5050784;28;20028;-51
2023/03/31 04:22:45;;;;;;;8.18;4.15;;;9.40;99.90;;;;;;5055338;28;20120;-51
2023/03/31 04:25:15;;;;;;;13.23;5.05;;;9.40;99.90;;;;;;5058745;28;20098;-51
2023/03/31 04:27:49;;;;;;;12.68;6.00;;;9.40;99.90;;;;;;5056340;28;20384;-53
2023/03/31 04:30:22;;;;;;;15.90;5.15;;;9.40;99.90;;;;;;5059111;28;20056;-50
2023/03/31 04:32:53;;;;;;;8.38;6.00;;;9.40;99.90;;;;;;5054739;28;20029;-49
2023/03/31 04:35:24;;;;;;;11.68;4.63;;;9.40;99.90;;;;;;5053176;28;20428;-51
2023/03/31 04:37:57;;;;;;;18.02;5.65;;;9.40;99.90;;;;;;5041575;28;20087;-53
2023/03/31 04:40:24;;;;;;;11.00;4.90;;;9.40;99.90;;;;;;5050130;28;20075;-49
2023/03/31 04:42:50;;;;;;;9.10;5.18;;;9.50;99.90;;;;;;5051738;28;20033;-51
2023/03/31 04:45:16;;;;;;;12.55;5.53;;;9.40;99.90;;;;;;5056839;28;20035;-50
2023/03/31 04:47:42;;;;;;;11.10;5.53;;;9.50;99.90;;;;;;5048215;28;20072;-50
2023/03/31 04:50:09;;;;;;;8.98;4.00;;;9.40;99.90;;;;;;5051679;28;20665;-53
2023/03/31 04:52:35;;;;;;;11.50;5.13;;;9.40;99.90;;;;;;5048625;28;20062;-51
2023/03/31 04:55:01;;;;;;;10.48;4.47;;;9.40;99.90;;;;;;5048968;28;20488;-50
2023/03/31 04:57:26;;;;;;;10.68;4.75;;;9.40;99.90;;;;;;5054648;28;20025;-53
2023/03/31 04:59:52;;;;;;;10.45;4.60;;;9.40;99.90;;;;;;5055057;28;20239;-51
2023/03/31 05:02:22;;;;;;;9.65;5.25;;;9.40;99.90;;;;;;5056026;28;20033;-53
2023/03/31 05:04:49;;;;;;;12.98;5.30;;;9.40;99.90;;;;;;5058933;28;20143;-52
2023/03/31 05:07:15;;;;;;;8.50;4.57;;;9.40;99.90;;;;;;5057119;28;20017;-53
2023/03/31 05:09:41;;;;;;;10.15;4.63;;;9.40;99.90;;;;;;5045367;28;20037;-51
2023/03/31 05:12:06;;;;;;;13.73;5.57;;;9.40;99.90;;;;;;5057030;28;20025;-51
2023/03/31 05:14:32;;;;;;;12.70;6.53;;;9.40;99.90;;;;;;5052793;28;20276;-50
2023/03/31 05:16:58;;;;;;;8.68;5.00;;;9.40;99.90;;;;;;5062824;28;20024;-49
2023/03/31 05:19:23;;;;;;;7.85;5.43;;;9.40;99.90;;;;;;5049949;28;20035;-50
2023/03/31 05:21:49;;;;;;;17.70;6.25;;;9.40;99.90;;;;;;5064493;28;20024;-51
2023/03/31 05:24:14;;;;;;;11.68;5.35;;;9.40;99.90;;;;;;5052579;28;20366;-49
2023/03/31 05:26:40;;;;;;;16.65;6.18;;;9.50;99.90;;;;;;5060819;28;20261;-49
2023/03/31 05:29:06;;;;;;;11.82;6.95;;;9.50;99.90;;;;;;5053552;28;20402;-52
2023/03/31 05:31:31;;;;;;;10.23;5.78;;;9.50;99.90;;;;;;5051317;28;20037;-51
2023/03/31 05:33:57;;;;;;;16.13;6.85;;;9.50;99.90;;;;;;5046715;28;20030;-51
2023/03/31 05:36:22;;;;;;;11.30;5.53;;;9.50;99.90;;;;;;5046044;28;20035;-50
2023/03/31 05:38:48;;;;;;;14.25;6.45;;;9.50;99.90;;;;;;5056892;28;20032;-50
2023/03/31 05:41:15;;;;;;;11.48;6.30;;;9.50;99.90;;;;;;5055322;28;20048;-50
2023/03/31 05:43:42;;;;;;;11.02;6.25;;;9.50;99.90;;;;;;5048452;28;20394;-54
2023/03/31 05:46:08;;;;;;;11.15;6.05;;;9.50;99.90;;;;;;5051238;28;20029;-50
2023/03/31 05:48:34;;;;;;;15.73;6.18;;;9.50;99.90;;;;;;5055159;28;21170;-50
2023/03/31 05:51:00;;;;;;;11.10;6.18;;;9.40;99.90;;;;;;5062527;28;20479;-50
2023/03/31 05:53:26;;;;;;;16.40;6.93;;;9.40;99.90;;;;;;5054246;28;20033;-50
2023/03/31 05:56:03;;;;;;;13.38;7.70;;;9.40;99.90;;;;;;5061471;28;20020;-52
2023/03/31 05:58:30;;;;;;;13.82;6.47;;;9.40;99.90;;;;;;5054049;28;20016;-56
2023/03/31 06:01:04;;;;;;;15.80;6.85;;;9.50;99.90;;;;;;5059787;28;20059;-50
2023/03/31 06:03:31;;;;;;;13.18;6.05;;;9.40;99.90;;;;;;5055318;28;20075;-51
2023/03/31 06:05:57;;;;;;;11.43;6.68;;;9.50;99.90;;;;;;5055985;28;20024;-51
2023/03/31 06:08:23;;;;;;;11.10;6.53;;;9.50;99.90;;;;;;5039033;28;20182;-50
2023/03/31 06:10:49;;;;;;;13.40;7.30;;;9.50;99.90;;;;;;5056425;28;20048;-50
2023/03/31 06:13:15;;;;;;;9.55;6.45;;;9.60;99.90;;;;;;5059530;28;20479;-55
2023/03/31 06:15:41;;;;;;;14.20;7.00;;;9.60;99.90;;;;;;5033166;22;20042;-83
2023/03/31 06:18:09;;;;;;;13.93;6.95;;;9.60;99.90;;;;;;5008224;28;20493;-83
2023/03/31 06:20:37;;;;;;;15.75;6.85;;;9.60;99.90;;;;;;5007128;28;20540;-83
2023/03/31 06:23:03;;;;;;;16.05;7.20;;;9.70;99.90;;;;;;5009617;28;20070;-83
2023/03/31 06:25:28;;;;;;;16.75;7.60;;;9.70;99.90;;;;;;5007213;28;20026;-83
2023/03/31 06:27:54;;;;;;;13.40;7.60;;;9.70;99.90;;;;;;4995814;28;20052;-82
2023/03/31 06:30:20;;;;;;;14.52;7.05;;;9.70;99.90;;;;;;5001549;28;20514;-83
2023/03/31 06:32:45;;;;;;;11.95;7.15;;;9.70;99.90;;;;;;4999924;28;20087;-83
2023/03/31 06:35:11;;;;;;;15.25;7.35;;;9.80;99.90;;;;;;5008183;28;20393;-84
2023/03/31 06:37:36;;;;;;;15.35;6.90;;;9.80;99.90;;;;;;5006838;28;20090;-83
2023/03/31 06:40:03;;;;;;;12.30;6.78;;;9.80;99.90;;;;;;5008651;28;20184;-83
2023/03/31 06:42:28;;;;;;;13.50;6.68;;;9.80;99.90;;;;;;5008299;28;20118;-83
2023/03/31 06:44:54;;;;;;;11.65;6.30;;;9.80;99.90;;;;;;5002981;28;20027;-83
2023/03/31 06:47:20;;;;;;;12.10;6.45;;;9.90;99.90;;;;;;5009098;28;20570;-82
2023/03/31 06:49:45;;;;;;;13.52;6.32;;;9.80;99.90;;;;;;5003362;28;20092;-83
2023/03/31 06:52:11;;;;;;;17.30;6.88;;;9.90;99.90;;;;;;5003445;28;20125;-83
2023/03/31 06:54:36;;;;;;;13.13;6.38;;;9.90;99.90;;;;;;4976385;28;20089;-82
2023/03/31 06:57:02;;;;;;;12.55;7.35;;;9.90;99.90;;;;;;5007151;28;20053;-83
2023/03/31 06:59:27;;;;;;;14.07;6.43;;;9.90;99.90;;;;;;4997808;28;20038;-81
2023/03/31 07:01:53;;;;;;;17.92;6.30;;;9.90;99.90;;;;;;5004520;28;20038;-82
2023/03/31 07:04:18;;;;;;;12.82;6.82;;;10.00;99.90;;;;;;5006557;28;20105;-82
2023/03/31 07:06:44;;;;;;;16.70;6.03;;;10.00;99.90;;;;;;5010160;28;20354;-82
2023/03/31 07:09:09;;;;;;;14.55;6.63;;;10.00;99.90;;;;;;5004117;28;20086;-84
2023/03/31 07:11:35;;;;;;;11.50;6.38;;;10.00;99.90;;;;;;4987196;28;20026;-83
2023/03/31 07:14:00;;;;;;;16.02;6.78;;;10.10;99.90;;;;;;5003311;28;20045;-83
2023/03/31 07:16:26;;;;;;;10.88;6.30;;;10.10;99.90;;;;;;5002766;28;20034;-83
2023/03/31 07:18:58;;;;;;;12.93;6.85;;;10.10;99.90;;;;;;4997459;28;20034;-83
2023/03/31 07:21:24;;;;;;;15.05;6.30;;;10.10;99.90;;;;;;5005884;28;20026;-84
2023/03/31 07:23:49;;;;;;;11.65;5.97;;;10.20;99.90;;;;;;5007312;28;20022;-83
2023/03/31 07:26:15;;;;;;;13.57;6.40;;;10.20;99.90;;;;;;5002649;28;20097;-82
2023/03/31 07:28:41;;;;;;;14.70;5.75;;;10.20;99.90;;;;;;5007113;28;20064;-84
2023/03/31 07:31:11;;;;;;;12.43;7.22;;;10.30;99.90;;;;;;4996867;28;20058;-82
2023/03/31 07:33:37;;;;;;;13.77;6.30;;;10.30;99.90;;;;;;5005424;28;20034;-83
2023/03/31 07:36:06;;;;;;;13.43;6.40;;;10.40;99.90;;;;;;4997395;28;20064;-84
2023/03/31 07:38:32;;;;;;;11.93;6.60;;;10.40;99.90;;;;;;5006101;28;20392;-84
2023/03/31 07:40:58;;;;;;;11.60;6.22;;;10.60;99.90;;;;;;4999652;28;20105;-84
2023/03/31 07:43:24;;;;;;;8.98;5.65;;;10.60;99.90;;;;;;5004296;28;20072;-84
2023/03/31 07:45:49;;;;;;;14.32;6.45;;;10.70;99.90;;;;;;5007508;28;20559;-83
2023/03/31 07:48:15;;;;;;;10.95;6.07;;;10.70;99.90;;;;;;4993742;28;20030;-85
2023/03/31 07:50:41;;;;;;;15.65;5.65;;;10.80;99.90;;;;;;5014205;28;20027;-84
2023/03/31 07:53:07;;;;;;;14.15;6.00;;;10.80;99.90;;;;;;5000342;28;20032;-84
2023/03/31 07:55:33;;;;;;;14.02;7.03;;;10.80;99.90;;;;;;5005414;28;20180;-84
2023/03/31 07:57:58;;;;;;;12.02;6.50;;;10.90;99.90;;;;;;5006939;28;20026;-82
2023/03/31 08:00:24;;;;;;;10.98;5.75;;;10.90;99.90;;;;;;4998409;28;20525;-84
2023/03/31 08:02:50;;;;;;;11.32;5.88;;;11.00;99.90;;;;;;5005704;28;20029;-83
2023/03/31 08:05:17;;;;;;;12.80;6.82;;;11.00;99.90;;;;;;4997566;28;20109;-83
2023/03/31 08:07:46;;;;;;;9.07;6.40;;;11.10;99.90;;;;;;5002127;28;20081;-83
2023/03/31 08:10:15;;;;;;;12.55;6.72;;;11.10;99.90;;;;;;5009451;28;20027;-83
2023/03/31 08:12:41;;;;;;;12.43;7.05;;;11.10;99.90;;;;;;5003155;28;20050;-84
2023/03/31 08:15:07;;;;;;;10.82;6.97;;;11.10;99.90;;;;;;4982667;28;20490;-84
2023/03/31 08:17:33;;;;;;;10.60;6.57;;;11.10;99.90;;;;;;5003181;28;20045;-85
2023/03/31 08:19:59;;;;;;;13.30;7.47;;;11.10;99.90;;;;;;4993477;28;20505;-83
2023/03/31 08:22:25;;;;;;;11.52;5.97;;;11.10;99.90;;;;;;5004182;28;20057;-84
2023/03/31 08:24:50;;;;;;;7.95;6.47;;;11.10;99.90;;;;;;4995840;28;20038;-84
2023/03/31 08:27:16;;;;;;;9.73;5.15;;;11.20;99.90;;;;;;5004683;28;20389;-84
2023/03/31 08:29:42;;;;;;;11.93;5.93;;;11.20;99.90;;;;;;5001283;28;20033;-83
2023/03/31 08:32:08;;;;;;;7.32;5.07;;;11.20;99.90;;;;;;4997463;28;20026;-84
2023/03/31 08:34:33;;;;;;;11.15;6.25;;;11.20;99.90;;;;;;4998749;28;20540;-84
2023/03/31 08:36:59;;;;;;;9.20;4.93;;;11.20;99.90;;;;;;5005139;28;20030;-84
2023/03/31 08:39:26;;;;;;;7.90;4.55;;;11.20;99.90;;;;;;5011761;28;20495;-83
2023/03/31 08:42:01;;;;;;;5.90;4.78;;;11.20;99.90;;;;;;5005908;28;20126;-84
2023/03/31 08:44:36;;;;;;;6.90;4.13;;;11.20;99.90;;;;;;5014059;28;20057;-84
2023/03/31 08:47:05;;;;;;;8.77;4.63;;;11.20;99.90;;;;;;4999823;28;20503;-85
2023/03/31 08:49:44;;;;;;;4.85;3.92;;;11.10;99.90;;;;;;5006760;28;20045;-85
2023/03/31 08:52:18;;;;;;;7.18;4.15;;;11.10;99.90;;;;;;5006982;28;20077;-85
2023/03/31 08:54:48;;;;;;;7.50;4.35;;;11.10;99.90;;;;;;4996897;28;20481;-85
2023/03/31 08:57:27;;;;;;;4.75;3.55;;;11.10;99.90;;;;;;5011704;28;20392;-85
2023/03/31 08:59:57;;;;;;;8.48;4.03;;;11.10;99.90;;;;;;5005532;28;20041;-83
2023/03/31 09:02:47;;;;;;;6.72;4.00;;;11.10;99.90;;;;;;5028165;28;20037;-83
2023/03/31 09:05:21;;;;;;;7.68;4.50;;;11.10;99.90;;;;;;4999209;28;20507;-85
2023/03/31 09:08:12;;;;;;;5.07;3.50;;;11.20;99.90;;;;;;5006897;28;20101;-83
2023/03/31 09:10:50;;;;;;;9.40;3.65;;;11.20;99.90;;;;;;5008942;28;20117;-84
2023/03/31 09:13:41;;;;;;;5.22;3.25;;;11.20;99.90;;;;;;5002806;28;20018;-84
2023/03/31 09:16:40;;;;;;;5.72;3.20;;;11.20;99.90;;;;;;4999720;28;20504;-84
2023/03/31 09:19:15;;;;;;;5.72;3.28;;;11.20;99.90;;;;;;5014347;28;20022;-85
2023/03/31 09:21:48;;;;;;;6.30;3.55;;;11.20;99.90;;;;;;5019761;28;20033;-85
2023/03/31 09:24:19;;;;;;;4.47;3.80;;;11.20;99.90;;;;;;4994912;28;20029;-85
2023/03/31 09:27:00;;;;;;;7.97;4.35;;;11.20;99.90;;;;;;5004474;28;20366;-84
2023/03/31 09:29:41;;;;;;;8.30;4.05;;;11.20;99.90;;;;;;4998066;28;20057;-85
2023/03/31 09:32:19;;;;;;;6.95;4.25;;;11.20;99.90;;;;;;4991306;28;20030;-85
2023/03/31 09:34:49;;;;;;;10.43;4.60;;;11.30;99.90;;;;;;5008455;28;20077;-85
2023/03/31 09:37:15;;;;;;;4.43;4.03;;;11.30;99.90;;;;;;4996348;28;20018;-86
2023/03/31 09:39:41;;;;;;;7.38;3.75;;;11.30;99.90;;;;;;5010297;28;20034;-87
2023/03/31 09:42:13;;;;;;;6.63;3.70;;;11.20;99.90;;;;;;4994999;28;20025;-85
2023/03/31 09:44:43;;;;;;;5.72;4.35;;;11.20;99.90;;;;;;5012415;28;20097;-85
2023/03/31 09:47:15;;;;;;;6.57;3.67;;;11.20;99.90;;;;;;4990497;28;20053;-85
2023/03/31 09:49:43;;;;;;;4.32;3.92;;;11.30;99.90;;;;;;4997143;28;20662;-85
2023/03/31 09:52:39;;;;;;;6.35;3.90;;;11.30;99.90;;;;;;4994663;28;20215;-84
2023/03/31 09:55:42;;;;;;;4.88;3.97;;;11.30;99.90;;;;;;5006305;28;20112;-85
2023/03/31 09:58:13;;;;;;;6.82;3.78;;;11.40;99.90;;;;;;4989897;28;20619;-84
2023/03/31 10:00:42;;;;;;;5.25;3.60;;;11.50;99.90;;;;;;5003284;28;20027;-85
2023/03/31 10:03:13;;;;;;;4.13;3.30;;;11.50;99.90;;;;;;4994172;28;20026;-84
2023/03/31 10:05:49;;;;;;;5.68;3.35;;;11.50;99.90;;;;;;5000990;28;20022;-85
2023/03/31 10:08:15;;;;;;;;;;;11.50;99.90;;;;;;4995018;28;20030;-85
2023/03/31 10:10:52;;;;;;;6.20;3.27;;;11.50;99.90;;;;;;4992312;28;20321;-85
2023/03/31 10:13:22;;;;;;;4.97;3.42;;;11.60;99.90;;;;;;4997833;28;20046;-85
2023/03/31 10:15:51;;;;;;;7.13;3.25;;;11.70;99.90;;;;;;4993747;28;20125;-84
2023/03/31 10:18:19;;;;;;;5.63;3.78;;;11.80;99.90;;;;;;4988926;28;20023;-85
2023/03/31 10:20:50;;;;;;;6.80;3.35;;;11.80;99.90;;;;;;4993885;28;20077;-84
2023/03/31 10:23:23;;;;;;;4.45;3.20;;;11.90;99.90;;;;;;4997624;28;20022;-84
2023/03/31 10:25:49;;;;;;;5.68;3.03;;;12.00;99.90;;;;;;4993881;28;20041;-85
2023/03/31 10:28:18;;;;;;;4.75;2.75;;;12.00;99.90;;;;;;4991817;28;20030;-84
2023/03/31 10:30:53;;;;;;;3.97;2.95;;;12.10;99.90;;;;;;4991177;28;20195;-85
2023/03/31 10:33:25;;;;;;;4.55;3.00;;;12.10;99.90;;;;;;4990075;28;20311;-84
2023/03/31 10:35:57;;;;;;;4.47;3.35;;;12.10;99.90;;;;;;4987907;28;20026;-84
2023/03/31 10:38:36;;;;;;;7.80;3.67;;;12.10;99.90;;;;;;5001245;28;20026;-84
2023/03/31 10:41:02;;;;;;;7.10;3.50;;;12.20;99.90;;;;;;5006324;28;20480;-85
2023/03/31 10:43:34;;;;;;;4.68;4.18;;;12.30;99.90;;;;;;5004405;28;20152;-85
2023/03/31 10:46:00;;;;;;;4.30;3.90;;;12.20;99.90;;;;;;5006423;28;20037;-85
2023/03/31 10:48:37;;;;;;;5.45;4.20;;;12.20;99.90;;;;;;4992698;28;20469;-84
2023/03/31 10:51:05;;;;;;;6.38;4.20;;;12.20;99.90;;;;;;5006211;28;20032;-84
2023/03/31 10:53:45;;;;;;;4.95;3.92;;;12.20;99.90;;;;;;5000856;28;20030;-85
2023/03/31 10:56:23;;;;;;;4.85;3.90;;;12.20;99.90;;;;;;5008600;28;20025;-84
2023/03/31 10:59:26;;;;;;;8.93;4.82;;;12.20;99.90;;;;;;5004597;28;20038;-86
2023/03/31 11:02:01;;;;;;;6.38;3.80;;;12.20;99.90;;;;;;5011518;28;20043;-84
2023/03/31 11:04:45;;;;;;;5.95;4.20;;;12.20;99.90;;;;;;4998311;28;20073;-84
2023/03/31 11:07:35;;;;;;;4.30;3.90;;;12.30;99.90;;;;;;4999775;28;20033;-85
2023/03/31 11:10:19;;;;;;;5.50;4.75;;;12.30;99.90;;;;;;5011276;28;20710;-84
2023/03/31 11:12:58;;;;;;;5.18;4.40;;;12.40;99.90;;;;;;4998589;28;20429;-85
2023/03/31 11:15:35;;;;;;;5.50;4.43;;;12.50;99.90;;;;;;5004988;28;20042;-85
2023/03/31 11:18:31;;;;;;;5.65;4.30;;;12.60;99.90;;;;;;5005468;28;20492;-85
2023/03/31 11:21:03;;;;;;;4.72;4.32;;;12.70;99.90;;;;;;5006739;28;20082;-84
2023/03/31 11:23:40;;;;;;;5.43;4.20;;;12.80;99.90;;;;;;5010171;28;20026;-85
2023/03/31 11:26:10;;;;;;;5.30;3.88;;;12.90;99.90;;;;;;5001993;28;20056;-84
2023/03/31 11:28:56;;;;;;;6.32;3.97;;;13.00;99.90;;;;;;5001744;28;20082;-85
2023/03/31 11:31:21;;;;;;;4.18;3.50;;;13.10;99.90;;;;;;5004417;28;20052;-84
2023/03/31 11:34:04;;;;;;;5.50;3.17;;;13.20;99.90;;;;;;5002014;28;20026;-84
2023/03/31 11:36:40;;;;;;;3.05;2.60;;;13.30;99.90;;;;;;5001459;28;20030;-84
2023/03/31 11:39:31;;;;;;;3.33;3.03;;;13.30;99.90;;;;;;5010356;28;20044;-84
2023/03/31 11:42:09;;;;;;;4.32;2.33;;;13.30;99.90;;;;;;5002883;28;20557;-85
2023/03/31 11:44:56;;;;;;;4.68;2.80;;;13.20;99.90;;;;;;5010030;28;20026;-85
2023/03/31 11:47:26;;;;;;;3.53;2.60;;;13.20;99.90;;;;;;4993687;28;20041;-85
2023/03/31 11:49:59;;;;;;;3.20;2.33;;;13.00;99.90;;;;;;4995157;28;20101;-84
2023/03/31 11:52:29;;;;;;;4.88;2.63;;;13.00;99.90;;;;;;5006548;28;20029;-84
2023/03/31 11:55:04;;;;;;;4.47;2.67;;;13.00;99.90;;;;;;5003727;28;20046;-84
2023/03/31 11:57:58;;;;;;;4.30;2.55;;;13.00;99.90;;;;;;5007799;28;20060;-84
2023/03/31 12:00:35;;;;;;;3.90;2.58;;;13.10;99.90;;;;;;4998255;28;20117;-83
2023/03/31 12:03:32;;;;;;;2.45;1.85;;;13.10;99.90;;;;;;5008869;28;20022;-84
2023/03/31 12:06:02;;;;;;;2.40;1.98;;;13.10;99.90;;;;;;5005117;28;20029;-84
2023/03/31 12:08:36;;;;;;;4.88;2.45;;;13.00;99.90;;;;;;4997944;28;20077;-85
2023/03/31 12:11:18;;;;;;;3.15;2.15;;;13.00;99.90;;;;;;5000434;28;20037;-84
2023/03/31 12:13:55;;;;;;;5.90;2.88;;;12.90;99.90;;;;;;4995540;28;20022;-84
2023/03/31 12:16:40;;;;;;;3.50;2.03;;;12.80;99.90;;;;;;4987821;28;20417;-83
2023/03/31 12:19:17;;;;;;;5.72;2.88;;;12.70;99.90;;;;;;5016635;28;20018;-85
2023/03/31 12:21:49;;;;;;;2.58;1.90;;;12.70;99.90;;;;;;5000774;28;20080;-86
2023/03/31 12:24:15;;;;;;;2.70;2.10;;;12.70;99.90;;;;;;5010074;28;20504;-85
2023/03/31 12:27:22;;;;;;;2.63;1.70;;;12.60;99.90;;;;;;5008434;28;20022;-86
2023/03/31 12:29:55;;;;;;;2.83;1.83;;;12.50;99.90;;;;;;5029333;28;20039;-87
2023/03/31 12:32:26;;;;;;;3.97;2.15;;;12.30;99.90;;;;;;5011908;28;20038;-85
2023/03/31 12:35:15;;;;;;;1.70;1.40;;;12.30;99.90;;;;;;5020435;28;20029;-85
2023/03/31 12:37:58;;;;;;;3.55;1.38;;;12.30;99.90;;;;;;5005514;28;20416;-84
2023/03/31 12:40:40;;;;;;;3.15;1.65;;;12.20;99.90;;;;;;5007044;28;20101;-85
2023/03/31 12:43:27;;;;;;;1.80;1.45;;;12.20;99.90;;;;;;5003113;28;20030;-85
2023/03/31 12:46:16;;;;;;;2.25;1.70;;;12.10;99.90;;;;;;5013258;28;20131;-85
2023/03/31 12:49:20;;;;;;;1.70;1.60;;;12.10;99.90;;;;;;5002833;28;20102;-86
2023/03/31 12:51:55;;;;;;;2.55;1.50;;;12.10;99.90;;;;;;5002555;28;20060;-85
2023/03/31 12:54:48;;;;;;;1.90;1.70;;;12.00;99.90;;;;;;4994662;28;20026;-85
2023/03/31 12:57:25;;;;;;;2.42;1.27;;;12.00;99.90;;;;;;5003581;28;20026;-85
2023/03/31 13:00:26;;;;;;;2.78;1.67;;;11.90;99.90;;;;;;4998853;28;20057;-86
2023/03/31 13:03:32;;;;;;;1.48;1.38;;;11.90;99.90;;;;;;5009067;28;20042;-85
2023/03/31 13:05:58;;;;;;;3.20;1.70;;;11.90;99.90;;;;;;4997810;28;20014;-85
2023/03/31 13:08:50;;;;;;;2.55;2.33;;;11.80;99.90;;;;;;5006260;28;20087;-86
2023/03/31 13:11:18;;;;;;;2.15;1.67;;;11.80;99.90;;;;;;5005197;28;20535;-85
2023/03/31 13:14:16;;;;;;;2.67;1.83;;;11.80;99.90;;;;;;4995132;28;20073;-85
2023/03/31 13:16:42;;;;;;;4.13;2.38;;;11.80;99.90;;;;;;5010734;28;20026;-86